createdAt,value
2018-11-11T00:00:11.863Z,8.70
2018-11-11T00:02:40.906Z,8.60
2018-11-11T00:05:10.790Z,8.60
2018-11-11T00:07:40.018Z,8.70
2018-11-11T00:10:09.015Z,8.60
2018-11-11T00:12:38.470Z,8.60
2018-11-11T00:15:09.495Z,8.60
2018-11-11T00:17:38.492Z,8.60
2018-11-11T00:20:08.320Z,8.60
2018-11-11T00:22:37.806Z,8.60
2018-11-11T00:25:07.367Z,8.70
2018-11-11T00:27:42.486Z,8.70
2018-11-11T00:30:13.982Z,8.60
2018-11-11T00:32:43.126Z,8.60
2018-11-11T00:35:12.191Z,8.60
2018-11-11T00:37:41.602Z,8.70
2018-11-11T00:40:11.865Z,8.70
2018-11-11T00:42:40.801Z,8.70
2018-11-11T00:45:10.092Z,8.70
2018-11-11T00:47:39.102Z,8.60
2018-11-11T00:50:09.299Z,8.60
2018-11-11T00:52:38.347Z,8.70
2018-11-11T00:55:09.519Z,8.70
2018-11-11T00:57:38.414Z,8.60
2018-11-11T01:00:11.552Z,8.60
2018-11-11T01:02:40.942Z,8.60
2018-11-11T01:05:10.913Z,8.60
2018-11-11T01:07:40.738Z,8.60
2018-11-11T01:10:11.557Z,8.60
2018-11-11T01:12:41.526Z,8.60
2018-11-11T01:15:12.148Z,8.70
2018-11-11T01:17:41.126Z,8.60
2018-11-11T01:20:12.002Z,8.60
2018-11-11T01:22:41.062Z,8.60
2018-11-11T01:25:12.076Z,8.60
2018-11-11T01:27:41.090Z,8.60
2018-11-11T01:30:10.078Z,8.50
2018-11-11T01:32:39.414Z,8.60
2018-11-11T01:35:11.167Z,8.50
2018-11-11T01:37:40.727Z,8.50
2018-11-11T01:40:09.690Z,8.50
2018-11-11T01:42:38.727Z,8.50
2018-11-11T01:45:12.072Z,8.50
2018-11-11T01:47:41.157Z,8.50
2018-11-11T01:50:10.995Z,8.40
2018-11-11T01:52:40.398Z,8.50
2018-11-11T01:55:10.332Z,8.50
2018-11-11T01:57:39.629Z,8.50
2018-11-11T02:00:10.742Z,8.50
2018-11-11T02:02:39.770Z,8.50
2018-11-11T02:05:10.194Z,8.60
2018-11-11T02:07:39.322Z,8.50
2018-11-11T02:10:09.339Z,8.40
2018-11-11T02:12:39.606Z,8.40
2018-11-11T02:15:09.823Z,8.40
2018-11-11T02:17:38.727Z,8.40
2018-11-11T02:20:09.570Z,8.40
2018-11-11T02:22:38.538Z,8.40
2018-11-11T02:25:07.885Z,8.40
2018-11-11T02:27:36.843Z,8.40
2018-11-11T02:30:07.962Z,8.40
2018-11-11T02:32:36.951Z,8.40
2018-11-11T02:35:06.523Z,8.40
2018-11-11T02:37:35.832Z,8.40
2018-11-11T02:40:06.496Z,8.40
2018-11-11T02:42:35.599Z,8.40
2018-11-11T02:45:05.331Z,8.30
2018-11-11T02:47:34.339Z,8.40
2018-11-11T02:50:03.534Z,8.40
2018-11-11T02:52:32.460Z,8.30
2018-11-11T02:55:01.409Z,8.30
2018-11-11T02:57:30.313Z,8.30
2018-11-11T02:59:59.222Z,8.30
2018-11-11T03:02:28.194Z,8.30
2018-11-11T03:04:57.237Z,8.30
2018-11-11T03:07:26.538Z,8.30
2018-11-11T03:09:55.615Z,8.30
2018-11-11T03:12:24.577Z,8.30
2018-11-11T03:14:53.554Z,8.20
2018-11-11T03:17:22.514Z,8.20
2018-11-11T03:19:51.447Z,8.20
2018-11-11T03:22:20.346Z,8.20
2018-11-11T03:24:49.307Z,8.20
2018-11-11T03:27:18.274Z,8.30
2018-11-11T03:29:47.195Z,8.30
2018-11-11T03:32:16.225Z,8.30
2018-11-11T03:34:45.278Z,8.30
2018-11-11T03:37:14.267Z,8.30
2018-11-11T03:39:43.206Z,8.30
2018-11-11T03:42:12.148Z,8.30
2018-11-11T03:44:41.039Z,8.30
2018-11-11T03:47:10.014Z,8.30
2018-11-11T03:49:38.961Z,8.30
2018-11-11T03:52:07.961Z,8.30
2018-11-11T03:54:36.959Z,8.30
2018-11-11T03:57:06.017Z,8.30
2018-11-11T03:59:35.101Z,8.30
2018-11-11T04:02:04.135Z,8.40
2018-11-11T04:04:33.057Z,8.30
2018-11-11T04:07:01.999Z,8.30
2018-11-11T04:09:30.926Z,8.30
2018-11-11T04:11:59.879Z,8.30
2018-11-11T04:14:28.790Z,8.40
2018-11-11T04:16:57.814Z,8.40
2018-11-11T04:19:26.859Z,8.40
2018-11-11T04:21:55.951Z,8.30
2018-11-11T04:24:24.934Z,8.40
2018-11-11T04:26:53.870Z,8.40
2018-11-11T04:29:22.807Z,8.40
2018-11-11T04:31:51.758Z,8.40
2018-11-11T04:34:20.638Z,8.40
2018-11-11T04:36:49.732Z,8.30
2018-11-11T04:39:18.697Z,8.30
2018-11-11T04:41:47.930Z,8.30
2018-11-11T04:44:17.090Z,8.30
2018-11-11T04:46:46.052Z,8.30
2018-11-11T04:49:15.125Z,8.30
2018-11-11T04:51:44.103Z,8.30
2018-11-11T04:54:13.002Z,8.30
2018-11-11T04:56:41.925Z,8.30
2018-11-11T04:59:10.945Z,8.30
2018-11-11T05:01:39.921Z,8.40
2018-11-11T05:04:08.835Z,8.30
2018-11-11T05:06:37.862Z,8.40
2018-11-11T05:09:09.590Z,8.40
2018-11-11T05:11:38.810Z,8.30
2018-11-11T05:14:07.843Z,8.30
2018-11-11T05:16:36.793Z,8.30
2018-11-11T05:19:06.939Z,8.40
2018-11-11T05:21:35.880Z,8.40
2018-11-11T05:24:05.212Z,8.40
2018-11-11T05:26:34.423Z,8.30
2018-11-11T05:29:03.807Z,8.30
2018-11-11T05:31:32.719Z,8.30
2018-11-11T05:34:01.707Z,8.20
2018-11-11T05:36:30.777Z,8.20
2018-11-11T05:38:59.685Z,8.20
2018-11-11T05:41:28.791Z,8.10
2018-11-11T05:43:57.725Z,8.20
2018-11-11T05:46:26.686Z,8.10
2018-11-11T05:48:55.651Z,8.10
2018-11-11T05:51:24.650Z,8.10
2018-11-11T05:53:53.618Z,8.10
2018-11-11T05:56:22.580Z,8.00
2018-11-11T05:58:51.638Z,8.00
2018-11-11T06:01:20.682Z,8.00
2018-11-11T06:03:49.685Z,8.00
2018-11-11T06:06:18.686Z,8.00
2018-11-11T06:08:47.902Z,8.00
2018-11-11T06:11:16.901Z,8.00
2018-11-11T06:13:45.868Z,8.00
2018-11-11T06:16:14.810Z,8.00
2018-11-11T06:18:43.747Z,7.90
2018-11-11T06:21:12.798Z,7.90
2018-11-11T06:23:41.710Z,7.90
2018-11-11T06:26:10.607Z,7.90
2018-11-11T06:28:39.646Z,7.90
2018-11-11T06:31:08.826Z,7.70
2018-11-11T06:33:37.884Z,7.70
2018-11-11T06:36:06.847Z,7.60
2018-11-11T06:38:35.804Z,7.60
2018-11-11T06:41:04.926Z,7.70
2018-11-11T06:43:33.866Z,7.70
2018-11-11T06:46:02.814Z,7.70
2018-11-11T06:48:31.768Z,7.70
2018-11-11T06:51:00.661Z,7.70
2018-11-11T06:53:29.638Z,7.70
2018-11-11T06:55:58.719Z,7.70
2018-11-11T06:58:27.687Z,7.80
2018-11-11T07:00:56.610Z,7.90
2018-11-11T07:03:37.025Z,7.90
2018-11-11T07:06:06.318Z,7.90
2018-11-11T07:08:35.246Z,7.90
2018-11-11T07:11:04.224Z,7.90
2018-11-11T07:13:33.171Z,7.90
2018-11-11T07:16:02.102Z,8.10
2018-11-11T07:18:31.046Z,8.30
2018-11-11T07:21:00.211Z,8.40
2018-11-11T07:23:29.241Z,8.40
2018-11-11T07:25:58.277Z,8.50
2018-11-11T07:28:27.254Z,8.60
2018-11-11T07:30:56.290Z,8.60
2018-11-11T07:33:25.483Z,8.70
2018-11-11T07:35:54.421Z,8.70
2018-11-11T07:38:23.291Z,8.70
2018-11-11T07:40:52.303Z,8.80
2018-11-11T07:43:21.310Z,8.80
2018-11-11T07:45:50.694Z,8.80
2018-11-11T07:48:20.038Z,8.80
2018-11-11T07:50:49.110Z,8.80
2018-11-11T07:53:18.262Z,8.80
2018-11-11T07:55:47.194Z,8.80
2018-11-11T07:58:16.162Z,8.90
2018-11-11T08:00:45.059Z,9.00
2018-11-11T08:03:14.094Z,9.00
2018-11-11T08:05:42.995Z,9.00
2018-11-11T08:08:11.940Z,9.00
2018-11-11T08:10:52.114Z,9.00
2018-11-11T08:13:21.115Z,9.00
2018-11-11T08:15:50.286Z,9.00
2018-11-11T08:18:19.278Z,9.10
2018-11-11T08:20:48.311Z,9.30
2018-11-11T08:23:17.253Z,9.20
2018-11-11T08:25:46.179Z,9.20
2018-11-11T08:28:15.150Z,9.20
2018-11-11T08:30:44.111Z,9.30
2018-11-11T08:33:13.024Z,9.30
2018-11-11T08:35:42.087Z,9.40
2018-11-11T08:38:11.042Z,9.30
2018-11-11T08:40:39.990Z,9.40
2018-11-11T08:43:08.840Z,9.30
2018-11-11T08:45:37.782Z,9.40
2018-11-11T08:48:06.826Z,9.50
2018-11-11T08:50:35.786Z,9.60
2018-11-11T08:53:04.703Z,9.60
2018-11-11T08:55:33.592Z,9.70
2018-11-11T08:58:02.548Z,9.70
2018-11-11T09:00:31.377Z,9.70
2018-11-11T09:03:00.371Z,9.80
2018-11-11T09:05:29.278Z,9.90
2018-11-11T09:07:58.206Z,10.20
2018-11-11T09:10:27.215Z,10.40
2018-11-11T09:12:56.386Z,10.60
2018-11-11T09:15:25.542Z,10.60
2018-11-11T09:17:54.473Z,10.60
2018-11-11T09:20:23.379Z,10.50
2018-11-11T09:22:52.471Z,10.60
2018-11-11T09:25:21.481Z,10.70
2018-11-11T09:27:50.361Z,10.80
2018-11-11T09:30:19.431Z,11.00
2018-11-11T09:32:48.376Z,11.20
2018-11-11T09:35:17.278Z,11.40
2018-11-11T09:37:46.310Z,11.60
2018-11-11T09:40:16.443Z,11.70
2018-11-11T09:42:45.398Z,11.60
2018-11-11T09:45:15.493Z,11.80
2018-11-11T09:47:46.923Z,11.80
2018-11-11T09:50:16.767Z,11.90
2018-11-11T09:52:45.767Z,11.90
2018-11-11T09:55:15.160Z,11.90
2018-11-11T09:57:44.145Z,11.90
2018-11-11T10:00:16.470Z,11.90
2018-11-11T10:02:50.915Z,11.90
2018-11-11T10:05:25.253Z,11.90
2018-11-11T10:10:03.907Z,11.90
2018-11-11T10:12:36.483Z,11.80
2018-11-11T10:15:13.422Z,11.80
2018-11-11T10:17:51.016Z,11.80
2018-11-11T10:20:28.146Z,11.80
2018-11-11T10:23:03.645Z,12.00
2018-11-11T10:26:08.376Z,12.10
2018-11-11T10:28:41.270Z,12.30
2018-11-11T10:31:45.788Z,12.40
2018-11-11T10:34:23.137Z,12.40
2018-11-11T10:37:55.150Z,12.60
2018-11-11T10:40:42.666Z,12.60
2018-11-11T10:43:25.786Z,12.80
2018-11-11T10:45:59.973Z,12.90
2018-11-11T10:48:32.333Z,12.90
2018-11-11T10:51:02.859Z,13.00
2018-11-11T10:53:31.807Z,13.20
2018-11-11T10:56:00.722Z,13.30
2018-11-11T10:58:29.730Z,13.40
2018-11-11T11:01:03.967Z,13.50
2018-11-11T11:03:34.270Z,13.60
2018-11-11T11:06:04.021Z,13.60
2018-11-11T11:08:33.130Z,13.60
2018-11-11T11:11:02.046Z,13.70
2018-11-11T11:13:31.143Z,13.80
2018-11-11T11:16:00.138Z,13.80
2018-11-11T11:18:29.135Z,13.90
2018-11-11T11:20:58.138Z,14.10
2018-11-11T11:23:27.086Z,14.20
2018-11-11T11:25:56.049Z,14.40
2018-11-11T11:28:25.282Z,14.50
2018-11-11T11:30:54.184Z,14.70
2018-11-11T11:33:23.171Z,15.00
2018-11-11T11:35:52.152Z,15.00
2018-11-11T11:38:21.039Z,14.90
2018-11-11T11:40:49.931Z,14.80
2018-11-11T11:43:18.854Z,14.80
2018-11-11T11:45:47.746Z,14.90
2018-11-11T11:48:16.654Z,14.80
2018-11-11T11:50:45.635Z,14.70
2018-11-11T11:53:14.542Z,14.80
2018-11-11T11:55:43.410Z,15.10
2018-11-11T11:58:18.070Z,15.40
2018-11-11T12:00:47.011Z,15.60
2018-11-11T12:03:16.280Z,15.90
2018-11-11T12:05:45.857Z,16.00
2018-11-11T12:08:14.860Z,16.10
2018-11-11T12:10:43.902Z,16.30
2018-11-11T12:13:13.619Z,16.40
2018-11-11T12:15:42.986Z,16.60
2018-11-11T12:18:12.151Z,16.80
2018-11-11T12:20:41.434Z,16.90
2018-11-11T12:23:10.959Z,17.00
2018-11-11T12:25:40.157Z,17.10
2018-11-11T12:28:09.506Z,17.20
2018-11-11T12:30:38.454Z,17.40
2018-11-11T12:33:07.403Z,17.40
2018-11-11T12:35:36.482Z,17.50
2018-11-11T12:38:05.565Z,17.50
2018-11-11T12:40:34.511Z,17.70
2018-11-11T12:43:03.451Z,17.80
2018-11-11T12:45:32.405Z,17.80
2018-11-11T12:48:01.306Z,17.80
2018-11-11T12:50:30.351Z,17.80
2018-11-11T12:52:59.216Z,18.10
2018-11-11T12:55:28.193Z,18.30
2018-11-11T12:57:57.027Z,18.40
2018-11-11T13:00:25.942Z,18.40
2018-11-11T13:02:54.826Z,18.40
2018-11-11T13:05:23.736Z,18.30
2018-11-11T13:07:52.706Z,18.40
2018-11-11T13:10:21.660Z,17.90
2018-11-11T13:12:50.663Z,17.10
2018-11-11T13:15:19.647Z,16.80
2018-11-11T13:17:48.579Z,16.90
2018-11-11T13:20:18.719Z,17.40
2018-11-11T13:22:47.877Z,17.80
2018-11-11T13:25:16.634Z,17.90
2018-11-11T13:27:45.582Z,18.00
2018-11-11T13:30:15.137Z,17.60
2018-11-11T13:32:44.178Z,17.20
2018-11-11T13:35:14.505Z,16.90
2018-11-11T13:37:43.781Z,16.60
2018-11-11T13:40:18.034Z,16.40
2018-11-11T13:42:46.957Z,16.10
2018-11-11T13:45:17.756Z,16.00
2018-11-11T13:47:47.560Z,15.80
2018-11-11T13:50:19.745Z,15.80
2018-11-11T13:52:48.766Z,15.80
2018-11-11T13:55:18.186Z,15.70
2018-11-11T13:57:47.543Z,15.70
2018-11-11T14:00:20.794Z,15.50
2018-11-11T14:02:49.839Z,15.40
2018-11-11T14:05:18.768Z,15.40
2018-11-11T14:07:47.675Z,15.40
2018-11-11T14:10:16.970Z,15.40
2018-11-11T14:12:45.910Z,15.30
2018-11-11T14:15:17.136Z,15.40
2018-11-11T14:17:46.574Z,15.30
2018-11-11T14:20:16.812Z,15.50
2018-11-11T14:22:46.733Z,15.50
2018-11-11T14:25:19.403Z,15.60
2018-11-11T14:27:48.246Z,15.60
2018-11-11T14:30:19.774Z,15.40
2018-11-11T14:32:49.506Z,15.30
2018-11-11T14:35:18.463Z,15.20
2018-11-11T14:37:47.723Z,15.10
2018-11-11T14:40:18.714Z,15.00
2018-11-11T14:42:47.709Z,14.90
2018-11-11T14:45:17.606Z,14.80
2018-11-11T14:47:47.757Z,14.70
2018-11-11T14:50:17.473Z,14.70
2018-11-11T14:52:46.913Z,14.70
2018-11-11T14:55:18.805Z,14.60
2018-11-11T14:57:47.725Z,14.50
2018-11-11T15:00:25.274Z,14.50
2018-11-11T15:03:02.518Z,14.40
2018-11-11T15:05:31.590Z,14.30
2018-11-11T15:08:00.773Z,14.20
2018-11-11T15:10:29.649Z,14.00
2018-11-11T15:12:58.637Z,13.80
2018-11-11T15:15:27.578Z,13.70
2018-11-11T15:17:57.440Z,13.60
2018-11-11T15:20:26.412Z,13.50
2018-11-11T15:22:55.277Z,13.40
2018-11-11T15:25:25.632Z,13.40
2018-11-11T15:27:54.535Z,13.30
2018-11-11T15:30:32.328Z,13.20
2018-11-11T15:33:01.822Z,13.10
2018-11-11T15:35:30.887Z,13.00
2018-11-11T15:37:59.826Z,13.00
2018-11-11T15:40:32.220Z,12.90
2018-11-11T15:43:01.557Z,12.90
2018-11-11T15:45:31.963Z,12.90
2018-11-11T15:48:01.186Z,12.90
2018-11-11T15:50:31.406Z,12.80
2018-11-11T15:53:01.847Z,12.80
2018-11-11T15:55:31.974Z,12.80
2018-11-11T15:58:00.983Z,12.80
2018-11-11T16:00:32.251Z,12.70
2018-11-11T16:03:01.175Z,12.60
2018-11-11T16:05:30.077Z,12.70
2018-11-11T16:07:59.698Z,12.60
2018-11-11T16:10:30.007Z,12.60
2018-11-11T16:12:58.962Z,12.60
2018-11-11T16:15:31.200Z,12.60
2018-11-11T16:18:03.895Z,12.50
2018-11-11T16:20:33.151Z,12.50
2018-11-11T16:23:03.374Z,12.50
2018-11-11T16:25:32.704Z,12.50
2018-11-11T16:28:01.650Z,12.50
2018-11-11T16:30:32.764Z,12.50
2018-11-11T16:33:01.928Z,12.50
2018-11-11T16:35:31.322Z,12.40
2018-11-11T16:38:00.890Z,12.40
2018-11-11T16:40:32.126Z,12.40
2018-11-11T16:43:01.244Z,12.30
2018-11-11T16:45:31.362Z,12.30
2018-11-11T16:48:00.415Z,12.30
2018-11-11T16:50:30.794Z,12.40
2018-11-11T16:53:01.382Z,12.30
2018-11-11T16:55:31.336Z,12.30
2018-11-11T16:58:00.342Z,12.30
2018-11-11T17:00:30.662Z,12.20
2018-11-11T17:03:00.665Z,12.20
2018-11-11T17:05:30.892Z,12.30
2018-11-11T17:07:59.886Z,12.20
2018-11-11T17:10:30.255Z,12.10
2018-11-11T17:13:00.603Z,12.10
2018-11-11T17:15:30.695Z,12.10
2018-11-11T17:17:59.874Z,12.10
2018-11-11T17:20:29.050Z,12.10
2018-11-11T17:23:00.922Z,12.10
2018-11-11T17:25:31.638Z,12.10
2018-11-11T17:28:00.820Z,12.00
2018-11-11T17:30:31.189Z,12.00
2018-11-11T17:33:05.532Z,12.00
2018-11-11T17:35:38.929Z,11.90
2018-11-11T17:38:08.223Z,11.90
2018-11-11T17:40:38.921Z,11.90
2018-11-11T17:43:08.085Z,11.90
2018-11-11T17:45:37.000Z,11.90
2018-11-11T17:48:06.180Z,11.90
2018-11-11T17:50:35.749Z,11.90
2018-11-11T17:53:05.998Z,11.80
2018-11-11T17:55:34.960Z,11.80
2018-11-11T17:58:05.063Z,11.80
2018-11-11T18:00:33.983Z,11.80
2018-11-11T18:03:04.298Z,11.80
2018-11-11T18:05:33.394Z,11.80
2018-11-11T18:08:05.983Z,11.70
2018-11-11T18:10:35.456Z,11.60
2018-11-11T18:13:04.382Z,11.60
2018-11-11T18:15:33.483Z,11.50
2018-11-11T18:18:03.233Z,11.50
2018-11-11T18:20:33.283Z,11.50
2018-11-11T18:23:03.536Z,11.50
2018-11-11T18:25:32.457Z,11.40
2018-11-11T18:28:01.579Z,11.40
2018-11-11T18:30:34.514Z,11.30
2018-11-11T18:33:03.435Z,11.30
2018-11-11T18:35:38.390Z,11.30
2018-11-11T18:38:09.451Z,11.30
2018-11-11T18:40:38.427Z,11.30
2018-11-11T18:43:07.574Z,11.20
2018-11-11T18:45:36.620Z,11.20
2018-11-11T18:48:07.169Z,11.20
2018-11-11T18:50:37.405Z,11.20
2018-11-11T18:53:06.639Z,11.10
2018-11-11T18:55:35.583Z,11.10
2018-11-11T18:58:04.850Z,11.10
2018-11-11T19:00:34.655Z,11.10
2018-11-11T19:03:03.891Z,11.00
2018-11-11T19:05:36.893Z,10.90
2018-11-11T19:08:06.127Z,10.90
2018-11-11T19:10:35.107Z,10.90
2018-11-11T19:13:05.472Z,10.90
2018-11-11T19:15:34.376Z,10.80
2018-11-11T19:18:04.661Z,10.80
2018-11-11T19:20:35.952Z,10.80
2018-11-11T19:23:05.305Z,10.70
2018-11-11T19:25:34.203Z,10.70
2018-11-11T19:28:04.619Z,10.70
2018-11-11T19:30:36.898Z,10.60
2018-11-11T19:33:05.987Z,10.60
2018-11-11T19:35:37.224Z,10.60
2018-11-11T19:38:06.195Z,10.50
2018-11-11T19:40:35.243Z,10.40
2018-11-11T19:43:07.133Z,10.40
2018-11-11T19:45:36.256Z,10.40
2018-11-11T19:48:05.852Z,10.30
2018-11-11T19:50:35.342Z,10.40
2018-11-11T19:53:04.718Z,10.40
2018-11-11T19:55:34.011Z,10.40
2018-11-11T19:58:04.362Z,10.40
2018-11-11T20:00:34.324Z,10.30
2018-11-11T20:03:04.788Z,10.30
2018-11-11T20:05:34.116Z,10.20
2018-11-11T20:08:03.539Z,10.20
2018-11-11T20:10:33.124Z,10.10
2018-11-11T20:13:03.651Z,10.00
2018-11-11T20:15:33.909Z,10.10
2018-11-11T20:18:02.943Z,10.10
2018-11-11T20:20:33.471Z,10.00
2018-11-11T20:23:02.571Z,10.00
2018-11-11T20:25:38.003Z,10.00
2018-11-11T20:28:08.030Z,10.00
2018-11-11T20:30:38.845Z,10.00
2018-11-11T20:33:08.071Z,9.90
2018-11-11T20:35:37.133Z,9.90
2018-11-11T20:38:07.099Z,10.00
2018-11-11T20:40:36.305Z,10.00
2018-11-11T20:43:05.782Z,10.00
2018-11-11T20:45:36.016Z,9.90
2018-11-11T20:48:05.435Z,9.90
2018-11-11T20:50:36.618Z,9.90
2018-11-11T20:53:06.545Z,9.90
2018-11-11T20:55:38.842Z,9.80
2018-11-11T20:58:08.768Z,9.80
2018-11-11T21:00:39.247Z,9.80
2018-11-11T21:03:08.787Z,9.80
2018-11-11T21:05:44.373Z,9.80
2018-11-11T21:08:13.398Z,9.80
2018-11-11T21:10:42.591Z,9.80
2018-11-11T21:13:11.519Z,9.90
2018-11-11T21:15:40.629Z,9.80
2018-11-11T21:18:09.579Z,9.80
2018-11-11T21:20:38.646Z,9.80
2018-11-11T21:23:08.127Z,9.80
2018-11-11T21:25:37.224Z,9.80
2018-11-11T21:28:06.175Z,9.70
2018-11-11T21:30:35.122Z,9.70
2018-11-11T21:33:05.690Z,9.70
2018-11-11T21:35:38.844Z,9.70
2018-11-11T21:38:07.787Z,9.60
2018-11-11T21:40:37.381Z,9.60
2018-11-11T21:43:06.558Z,9.50
2018-11-11T21:45:35.544Z,9.40
2018-11-11T21:48:05.812Z,9.40
2018-11-11T21:50:36.246Z,9.10
2018-11-11T21:53:24.405Z,9.00
2018-11-11T21:55:56.490Z,9.10
2018-11-11T21:58:26.776Z,9.00
2018-11-11T22:00:56.050Z,9.00
2018-11-11T22:03:25.446Z,9.00
2018-11-11T22:05:54.678Z,9.00
2018-11-11T22:08:24.361Z,9.00
2018-11-11T22:10:53.885Z,9.00
2018-11-11T22:13:23.677Z,9.00
2018-11-11T22:15:53.033Z,8.90
2018-11-11T22:18:22.018Z,8.90
2018-11-11T22:20:50.975Z,9.00
2018-11-11T22:23:19.875Z,9.00
2018-11-11T22:25:48.800Z,8.80
2018-11-11T22:28:17.718Z,8.70
2018-11-11T22:30:46.694Z,8.70
2018-11-11T22:33:15.633Z,8.60
2018-11-11T22:35:44.613Z,8.60
2018-11-11T22:38:13.587Z,8.60
2018-11-11T22:40:42.551Z,8.60
2018-11-11T22:43:11.490Z,8.60
2018-11-11T22:45:40.482Z,8.50
2018-11-11T22:48:09.503Z,8.50
2018-11-11T22:50:38.611Z,8.50
2018-11-11T22:53:07.563Z,8.50
2018-11-11T22:55:36.560Z,8.60
2018-11-11T22:58:05.823Z,8.60
2018-11-11T23:00:34.881Z,8.40
2018-11-11T23:03:03.863Z,8.50
2018-11-11T23:05:32.799Z,8.50
2018-11-11T23:08:01.723Z,8.50
2018-11-11T23:10:30.830Z,8.50
2018-11-11T23:12:59.779Z,8.50
2018-11-11T23:15:28.754Z,8.40
2018-11-11T23:17:57.694Z,8.40
2018-11-11T23:20:27.352Z,8.40
2018-11-11T23:22:56.382Z,8.30
2018-11-11T23:25:25.701Z,8.30
2018-11-11T23:27:54.879Z,8.30
2018-11-11T23:30:24.078Z,8.30
2018-11-11T23:32:53.066Z,8.40
2018-11-11T23:35:22.182Z,8.30
2018-11-11T23:37:51.229Z,8.40
2018-11-11T23:40:20.170Z,8.40
2018-11-11T23:42:49.141Z,8.50
2018-11-11T23:45:18.172Z,8.50
2018-11-11T23:47:47.111Z,8.40
2018-11-11T23:50:17.423Z,8.40
2018-11-11T23:52:46.798Z,8.40
2018-11-11T23:55:16.847Z,8.50
2018-11-11T23:57:45.896Z,8.60
